Time;durP1;ratioP1;P1;durP2;ratioP2;P2;SDS_P1;SDS_P2;PMS_P1;PMS_P2;Temp;Humidity;BMP_temperature;BMP_pressure;BME280_temperature;BME280_humidity;BME280_pressure;Samples;Min_cycle;Max_cycle;Signal;HPM_P1;HPM_P2
2024/04/13 00:01:33;;;;;;;4.78;3.03;;;13.70;99.90;;;;;;5348581;26;20147;-82
2024/04/13 00:03:59;;;;;;;7.03;3.17;;;13.60;99.90;;;;;;5318976;26;19997;-82
2024/04/13 00:06:26;;;;;;;9.70;3.78;;;13.60;99.90;;;;;;5318845;26;20008;-79
2024/04/13 00:08:55;;;;;;;3.70;2.95;;;13.60;99.90;;;;;;5349260;26;20425;-81
2024/04/13 00:11:21;;;;;;;7.68;3.50;;;13.50;99.90;;;;;;5349184;26;20072;-82
2024/04/13 00:13:47;;;;;;;7.47;3.38;;;13.50;99.90;;;;;;5348207;26;19992;-81
2024/04/13 00:16:12;;;;;;;7.45;3.92;;;13.50;99.90;;;;;;5348987;26;19993;-81
2024/04/13 00:18:38;;;;;;;7.95;3.60;;;13.50;99.90;;;;;;5317891;26;20029;-81
2024/04/13 00:21:03;;;;;;;7.30;3.30;;;13.40;99.90;;;;;;5318809;26;20444;-82
2024/04/13 00:23:31;;;;;;;6.72;3.72;;;13.40;99.90;;;;;;5316773;26;20005;-79
2024/04/13 00:25:57;;;;;;;9.82;3.47;;;13.30;99.90;;;;;;5318342;26;20005;-82
2024/04/13 00:28:22;;;;;;;10.23;3.53;;;13.30;99.90;;;;;;5318677;26;20008;-81
2024/04/13 00:30:48;;;;;;;5.43;2.72;;;13.20;99.90;;;;;;5347903;26;20385;-81
2024/04/13 00:33:14;;;;;;;8.50;2.95;;;13.10;99.90;;;;;;5348130;26;20445;-81
2024/04/13 00:35:40;;;;;;;5.93;3.20;;;13.00;99.90;;;;;;5347484;26;20001;-81
2024/04/13 00:38:06;;;;;;;4.15;2.72;;;13.00;99.90;;;;;;5348421;26;20081;-84
2024/04/13 00:40:32;;;;;;;7.45;2.97;;;13.00;99.90;;;;;;5317332;26;20003;-81
2024/04/13 00:43:08;;;;;;;5.75;3.05;;;13.00;99.90;;;;;;5348451;26;20000;-81
2024/04/13 00:45:42;;;;;;;8.02;2.75;;;12.90;99.90;;;;;;5348170;26;20001;-81
2024/04/13 00:48:14;;;;;;;4.82;2.72;;;12.90;99.90;;;;;;5349071;26;20008;-81
2024/04/13 00:50:41;;;;;;;5.70;3.17;;;12.80;99.90;;;;;;5317964;26;20012;-82
2024/04/13 00:53:11;;;;;;;5.47;2.78;;;12.80;99.90;;;;;;5318801;26;20001;-85
2024/04/13 00:55:40;;;;;;;5.45;2.70;;;12.70;99.90;;;;;;5348794;26;20066;-83
2024/04/13 00:58:06;;;;;;;9.07;2.75;;;12.70;99.90;;;;;;5318793;26;20119;-84
2024/04/13 01:00:33;;;;;;;5.13;2.78;;;12.70;99.90;;;;;;5317914;26;20004;-82
2024/04/13 01:03:00;;;;;;;5.00;2.65;;;12.80;99.90;;;;;;5348611;26;20001;-83
2024/04/13 01:05:27;;;;;;;3.67;2.60;;;12.80;99.90;;;;;;5318446;26;20001;-83
2024/04/13 01:07:54;;;;;;;8.68;3.05;;;12.80;99.90;;;;;;5318228;26;19997;-83
2024/04/13 01:10:21;;;;;;;6.13;2.30;;;12.80;99.90;;;;;;5349359;26;19993;-83
2024/04/13 01:12:47;;;;;;;5.45;2.55;;;12.70;99.90;;;;;;5348273;26;20007;-83
2024/04/13 01:15:13;;;;;;;6.25;2.90;;;12.60;99.90;;;;;;5318471;26;20452;-82
2024/04/13 01:17:38;;;;;;;5.53;2.90;;;12.50;99.90;;;;;;5348116;26;20009;-83
2024/04/13 01:20:07;;;;;;;4.40;3.05;;;12.50;99.90;;;;;;5318164;26;19993;-82
2024/04/13 01:22:41;;;;;;;4.57;2.33;;;12.50;99.90;;;;;;5347953;26;20047;-80
2024/04/13 01:25:09;;;;;;;3.95;2.40;;;12.50;99.90;;;;;;5349080;26;20001;-82
2024/04/13 01:27:35;;;;;;;3.70;2.80;;;12.50;99.90;;;;;;5317362;26;19997;-82
2024/04/13 01:30:02;;;;;;;8.57;2.85;;;12.50;99.90;;;;;;5318227;26;20008;-82
2024/04/13 01:32:27;;;;;;;5.30;2.58;;;12.40;99.90;;;;;;5313707;26;19997;-81
2024/04/13 01:34:53;;;;;;;5.80;2.97;;;12.50;99.90;;;;;;5312584;27;20071;-81
2024/04/13 01:37:19;;;;;;;4.82;3.00;;;12.50;99.90;;;;;;5313626;26;20008;-82
2024/04/13 01:39:45;;;;;;;4.97;2.83;;;12.50;99.90;;;;;;5282939;27;20430;-81
2024/04/13 01:42:11;;;;;;;4.55;2.50;;;12.50;99.90;;;;;;5283372;27;20381;-81
2024/04/13 01:44:36;;;;;;;7.07;2.85;;;12.50;99.90;;;;;;5282775;27;20013;-82
2024/04/13 01:47:02;;;;;;;5.85;2.70;;;12.50;99.90;;;;;;5314179;27;19990;-83
2024/04/13 01:49:27;;;;;;;5.63;3.17;;;12.50;99.90;;;;;;5283798;27;20407;-83
2024/04/13 01:51:53;;;;;;;4.97;2.85;;;12.50;99.90;;;;;;5283362;27;20072;-83
2024/04/13 01:54:19;;;;;;;5.72;3.15;;;12.50;99.90;;;;;;5313913;27;20415;-83
2024/04/13 01:56:44;;;;;;;10.18;3.40;;;12.50;99.90;;;;;;5282545;27;20434;-83
2024/04/13 01:59:10;;;;;;;4.40;2.58;;;12.50;99.90;;;;;;5313450;27;20076;-83
2024/04/13 02:01:36;;;;;;;4.38;2.67;;;12.40;99.90;;;;;;5282573;27;19993;-81
2024/04/13 02:04:03;;;;;;;6.78;2.47;;;12.50;99.90;;;;;;5283490;27;19997;-83
2024/04/13 02:06:28;;;;;;;6.57;2.65;;;12.40;99.90;;;;;;5282944;27;20014;-83
2024/04/13 02:08:54;;;;;;;4.82;2.45;;;12.40;99.90;;;;;;5312077;27;20270;-82
2024/04/13 02:11:19;;;;;;;4.15;2.35;;;12.40;99.90;;;;;;5312914;27;19997;-82
2024/04/13 02:13:45;;;;;;;7.53;2.67;;;12.40;99.90;;;;;;5282089;27;19994;-82
2024/04/13 02:16:11;;;;;;;5.10;2.58;;;12.50;99.90;;;;;;5282605;27;20013;-82
2024/04/13 02:18:39;;;;;;;2.53;2.10;;;12.50;99.90;;;;;;5281998;27;19993;-81
2024/04/13 02:21:05;;;;;;;3.35;2.53;;;12.50;99.90;;;;;;5282255;27;19997;-82
2024/04/13 02:23:31;;;;;;;5.60;2.72;;;12.50;99.90;;;;;;5312813;27;19998;-82
2024/04/13 02:25:58;;;;;;;5.90;2.60;;;12.40;99.90;;;;;;5311750;26;20006;-82
2024/04/13 02:28:24;;;;;;;4.30;2.30;;;12.30;99.90;;;;;;5282250;27;19993;-81
2024/04/13 02:30:50;;;;;;;2.78;2.35;;;12.30;99.90;;;;;;5281825;27;20005;-81
2024/04/13 02:33:15;;;;;;;5.25;2.38;;;12.20;99.90;;;;;;5312156;26;19997;-81
2024/04/13 02:35:41;;;;;;;5.13;2.80;;;12.10;99.90;;;;;;5281583;27;20004;-81
2024/04/13 02:38:08;;;;;;;4.57;2.42;;;12.10;99.90;;;;;;5312659;26;20390;-81
2024/04/13 02:40:34;;;;;;;6.00;2.42;;;12.10;99.90;;;;;;5281827;27;20003;-78
2024/04/13 02:43:01;;;;;;;4.22;2.35;;;12.10;99.90;;;;;;5311760;26;20006;-80
2024/04/13 02:45:26;;;;;;;3.85;2.10;;;12.10;99.90;;;;;;5311274;26;19994;-80
2024/04/13 02:47:52;;;;;;;4.13;2.50;;;12.20;99.90;;;;;;5313887;26;20038;-80
2024/04/13 02:50:18;;;;;;;7.05;2.95;;;12.20;99.90;;;;;;5285186;27;20008;-81
2024/04/13 02:52:44;;;;;;;5.03;2.85;;;12.20;99.90;;;;;;5314848;27;20095;-81
2024/04/13 02:55:10;;;;;;;6.72;3.00;;;12.10;99.90;;;;;;5315364;27;19998;-81
2024/04/13 02:57:35;;;;;;;5.85;3.08;;;12.10;99.90;;;;;;5284946;27;20434;-78
2024/04/13 03:00:03;;;;;;;4.07;2.75;;;12.10;99.90;;;;;;5315017;27;19998;-81
2024/04/13 03:02:29;;;;;;;5.18;2.55;;;12.10;99.90;;;;;;5285145;27;20012;-80
2024/04/13 03:04:54;;;;;;;3.45;2.50;;;12.00;99.90;;;;;;5284008;27;20574;-81
2024/04/13 03:07:20;;;;;;;8.60;3.17;;;12.00;99.90;;;;;;5285129;27;20005;-81
2024/04/13 03:09:47;;;;;;;5.15;3.13;;;12.00;99.90;;;;;;5284429;27;20002;-79
2024/04/13 03:12:13;;;;;;;6.20;2.58;;;12.00;99.90;;;;;;5284946;27;20456;-81
2024/04/13 03:14:39;;;;;;;4.55;2.55;;;11.90;99.90;;;;;;5284209;27;20001;-78
2024/04/13 03:17:05;;;;;;;6.57;2.20;;;11.90;99.90;;;;;;5285218;27;20007;-80
2024/04/13 03:19:32;;;;;;;8.25;2.55;;;11.90;99.90;;;;;;5314800;26;20004;-82
2024/04/13 03:21:59;;;;;;;5.03;2.38;;;11.90;99.90;;;;;;5284549;27;20176;-82
2024/04/13 03:24:24;;;;;;;6.40;2.60;;;11.90;99.90;;;;;;5315158;27;20000;-83
2024/04/13 03:26:50;;;;;;;6.75;2.78;;;11.90;99.90;;;;;;5283856;27;20001;-82
2024/04/13 03:29:16;;;;;;;4.00;2.28;;;11.90;99.90;;;;;;5285021;27;20004;-82
2024/04/13 03:31:41;;;;;;;3.80;2.60;;;11.90;99.90;;;;;;5314016;27;20001;-82
2024/04/13 03:34:07;;;;;;;3.22;2.13;;;11.90;99.90;;;;;;5284877;27;19989;-83
2024/04/13 03:36:35;;;;;;;5.38;2.50;;;11.70;99.90;;;;;;5284670;27;20349;-82
2024/04/13 03:39:02;;;;;;;8.05;2.60;;;11.70;99.90;;;;;;5314018;26;20496;-82
2024/04/13 03:41:28;;;;;;;3.92;2.72;;;11.60;99.90;;;;;;5284534;27;20006;-81
2024/04/13 03:43:53;;;;;;;4.45;2.55;;;11.50;99.90;;;;;;5313987;26;20068;-79
2024/04/13 03:46:19;;;;;;;3.17;2.15;;;11.50;99.90;;;;;;5283937;27;20465;-80
2024/04/13 03:48:44;;;;;;;3.28;2.00;;;11.50;99.90;;;;;;5283925;27;20005;-79
2024/04/13 03:51:10;;;;;;;8.88;2.53;;;11.40;99.90;;;;;;5314467;27;20001;-79
2024/04/13 03:53:36;;;;;;;4.00;2.47;;;11.30;99.90;;;;;;5284403;27;19997;-79
2024/04/13 03:56:02;;;;;;;5.25;2.10;;;11.40;99.90;;;;;;5284091;27;20453;-79
2024/04/13 03:58:28;;;;;;;5.40;2.50;;;11.40;99.90;;;;;;5314412;27;19994;-79
2024/04/13 04:00:54;;;;;;;2.38;2.08;;;11.40;99.90;;;;;;5283650;27;19998;-80
2024/04/13 04:03:20;;;;;;;3.22;2.10;;;11.30;99.90;;;;;;5284593;27;20005;-81
2024/04/13 04:05:49;;;;;;;3.28;1.98;;;11.30;99.90;;;;;;5313671;27;20508;-79
2024/04/13 04:08:15;;;;;;;6.28;2.30;;;11.40;99.90;;;;;;5314805;27;19994;-79
2024/04/13 04:10:41;;;;;;;6.00;2.03;;;11.40;99.90;;;;;;5284118;27;20013;-78
2024/04/13 04:13:07;;;;;;;2.33;1.75;;;11.40;99.90;;;;;;5313791;26;20339;-79
2024/04/13 04:15:33;;;;;;;4.30;2.20;;;11.30;99.90;;;;;;5284231;27;19993;-79
2024/04/13 04:17:59;;;;;;;6.20;2.30;;;11.30;99.90;;;;;;5283328;27;19994;-81
2024/04/13 04:20:25;;;;;;;2.88;1.95;;;11.30;99.90;;;;;;5284580;27;20009;-82
2024/04/13 04:22:54;;;;;;;5.00;2.10;;;11.30;99.90;;;;;;5283593;27;19998;-81
2024/04/13 04:25:20;;;;;;;5.55;2.53;;;11.30;99.90;;;;;;5284517;27;20072;-82
2024/04/13 04:27:46;;;;;;;6.03;2.25;;;11.30;99.90;;;;;;5313828;27;20076;-80
2024/04/13 04:30:12;;;;;;;3.85;1.92;;;11.20;99.90;;;;;;5284254;27;20009;-83
2024/04/13 04:32:38;;;;;;;2.20;1.90;;;11.20;99.90;;;;;;5314454;26;19997;-83
2024/04/13 04:35:06;;;;;;;3.20;1.92;;;11.20;99.90;;;;;;5283142;27;19998;-79
2024/04/13 04:37:32;;;;;;;4.47;2.00;;;11.20;99.90;;;;;;5283323;27;20009;-79
2024/04/13 04:39:58;;;;;;;3.70;2.20;;;11.20;99.90;;;;;;5312910;26;19993;-78
2024/04/13 04:42:24;;;;;;;3.47;2.30;;;11.20;99.90;;;;;;5283360;27;20005;-79
2024/04/13 04:44:50;;;;;;;4.47;2.30;;;11.20;99.90;;;;;;5282793;27;19998;-79
2024/04/13 04:47:16;;;;;;;2.97;2.10;;;11.20;99.90;;;;;;5313982;27;20033;-80
2024/04/13 04:49:42;;;;;;;3.95;2.63;;;11.20;99.90;;;;;;5283379;27;19997;-79
2024/04/13 04:52:07;;;;;;;2.53;1.80;;;11.20;99.90;;;;;;5283571;27;20013;-80
2024/04/13 04:54:33;;;;;;;4.32;2.20;;;11.20;99.90;;;;;;5313379;26;19994;-80
2024/04/13 04:56:59;;;;;;;3.10;1.85;;;11.20;99.90;;;;;;5311797;26;20002;-81
2024/04/13 04:59:25;;;;;;;4.68;1.90;;;11.30;99.90;;;;;;5313544;27;19993;-82
2024/04/13 05:01:50;;;;;;;3.15;2.03;;;11.10;99.90;;;;;;5313029;27;20009;-81
2024/04/13 05:04:17;;;;;;;5.88;1.98;;;11.10;99.90;;;;;;5283696;27;20063;-81
2024/04/13 05:06:42;;;;;;;3.95;1.95;;;10.90;99.90;;;;;;5313512;27;20075;-79
2024/04/13 05:09:09;;;;;;;2.53;2.03;;;10.80;99.90;;;;;;5312689;27;20034;-81
2024/04/13 05:11:35;;;;;;;4.25;2.00;;;10.90;99.90;;;;;;5283585;27;20001;-81
2024/04/13 05:14:01;;;;;;;2.72;1.60;;;10.90;99.90;;;;;;5313057;26;20076;-81
2024/04/13 05:16:27;;;;;;;3.72;1.95;;;11.00;99.90;;;;;;5283245;27;20000;-80
2024/04/13 05:18:52;;;;;;;4.05;2.03;;;11.00;99.90;;;;;;5312789;26;20410;-81
2024/04/13 05:21:18;;;;;;;3.33;1.80;;;10.90;99.90;;;;;;5318507;26;20450;-80
2024/04/13 05:23:43;;;;;;;4.53;2.22;;;11.00;99.90;;;;;;5312898;27;19998;-79
2024/04/13 05:26:09;;;;;;;2.95;1.90;;;11.00;99.90;;;;;;5282786;27;20438;-82
2024/04/13 05:28:34;;;;;;;2.55;1.92;;;11.10;99.90;;;;;;5313071;27;20338;-82
2024/04/13 05:31:02;;;;;;;5.47;2.30;;;11.00;99.90;;;;;;5282386;27;20002;-81
2024/04/13 05:33:28;;;;;;;2.65;1.70;;;11.00;99.90;;;;;;5313450;27;20004;-81
2024/04/13 05:35:57;;;;;;;4.55;1.98;;;11.10;99.90;;;;;;5282823;27;19994;-80
2024/04/13 05:38:22;;;;;;;3.97;2.00;;;11.00;99.90;;;;;;5292437;26;20020;-80
2024/04/13 05:40:50;;;;;;;2.65;1.67;;;11.10;99.90;;;;;;5336995;26;20462;-78
2024/04/13 05:43:16;;;;;;;2.47;1.85;;;11.10;99.90;;;;;;5308984;26;20037;-80
2024/04/13 05:45:43;;;;;;;3.92;2.03;;;11.20;99.90;;;;;;5300140;26;20013;-81
2024/04/13 05:48:09;;;;;;;5.18;1.92;;;11.20;99.90;;;;;;5299991;26;20005;-81
2024/04/13 05:50:34;;;;;;;4.55;2.13;;;11.20;99.90;;;;;;5303841;26;20466;-81
2024/04/13 05:53:00;;;;;;;4.32;1.80;;;11.20;99.90;;;;;;5327603;26;20017;-80
2024/04/13 05:55:25;;;;;;;4.85;2.08;;;11.30;99.90;;;;;;5334281;26;20071;-82
2024/04/13 05:57:51;;;;;;;3.78;2.45;;;11.40;99.90;;;;;;5306371;26;20005;-82
2024/04/13 06:00:16;;;;;;;3.83;1.95;;;11.50;99.90;;;;;;5316782;26;20009;-86
2024/04/13 06:02:42;;;;;;;4.10;2.33;;;11.60;99.90;;;;;;5333578;26;20001;-83
2024/04/13 06:05:07;;;;;;;5.30;2.13;;;11.70;99.90;;;;;;5336337;26;20219;-83
2024/04/13 06:07:33;;;;;;;5.47;2.50;;;11.70;99.90;;;;;;5282969;27;20005;-90
2024/04/13 06:09:59;;;;;;;4.45;2.78;;;11.80;99.90;;;;;;5283035;27;20028;-88
2024/04/13 06:12:24;;;;;;;5.38;2.55;;;11.90;99.90;;;;;;5313722;27;20009;-91
2024/04/13 06:14:50;;;;;;;4.38;2.33;;;12.00;99.90;;;;;;5331141;26;20341;-88
2024/04/13 06:17:16;;;;;;;4.18;2.45;;;12.10;99.90;;;;;;5335932;26;20076;-91
2024/04/13 06:19:41;;;;;;;2.90;2.20;;;12.20;99.90;;;;;;5313365;27;20012;-91
2024/04/13 06:22:11;;;;;;;5.00;2.33;;;12.20;99.90;;;;;;5304725;26;19997;-82
2024/04/13 06:24:36;;;;;;;3.42;2.45;;;12.30;99.90;;;;;;5322944;26;20012;-84
2024/04/13 06:27:04;;;;;;;4.75;2.30;;;12.40;99.90;;;;;;5326820;26;20002;-83
2024/04/13 06:29:30;;;;;;;6.38;3.17;;;12.50;99.90;;;;;;5334603;26;20346;-83
2024/04/13 06:31:56;;;;;;;4.40;2.42;;;12.60;99.90;;;;;;5324646;26;20016;-85
2024/04/13 06:34:21;;;;;;;5.20;2.70;;;12.70;99.90;;;;;;5283019;27;20017;-85
2024/04/13 06:36:47;;;;;;;12.93;3.38;;;12.80;99.90;;;;;;5312334;27;20001;-82
2024/04/13 06:39:14;;;;;;;4.43;2.70;;;12.80;99.90;;;;;;5312776;27;20075;-86
2024/04/13 06:41:43;;;;;;;4.22;2.35;;;12.90;99.90;;;;;;5281857;27;20423;-84
2024/04/13 06:44:09;;;;;;;6.90;2.67;;;13.00;99.90;;;;;;5306322;26;20091;-86
2024/04/13 06:46:34;;;;;;;3.85;2.58;;;13.00;99.90;;;;;;5317669;26;20425;-85
2024/04/13 06:49:00;;;;;;;4.07;2.45;;;13.10;99.90;;;;;;5337913;26;20019;-85
2024/04/13 06:51:26;;;;;;;6.53;2.63;;;13.10;99.90;;;;;;5332283;26;20006;-87
2024/04/13 06:53:52;;;;;;;6.32;2.50;;;13.20;99.90;;;;;;5301648;26;19997;-85
2024/04/13 06:56:19;;;;;;;3.67;2.72;;;13.20;99.90;;;;;;5345998;26;20100;-86
2024/04/13 06:58:45;;;;;;;4.45;2.67;;;13.30;99.90;;;;;;5316397;26;20011;-86
2024/04/13 07:01:10;;;;;;;5.78;2.70;;;13.40;99.90;;;;;;5345730;26;20003;-86
2024/04/13 07:03:36;;;;;;;4.75;2.83;;;13.40;99.90;;;;;;5299123;27;20009;-83
2024/04/13 07:06:02;;;;;;;4.53;2.25;;;13.50;99.90;;;;;;5280971;27;20071;-83
2024/04/13 07:08:28;;;;;;;5.68;2.67;;;13.50;99.90;;;;;;5340150;26;20071;-84
2024/04/13 07:10:55;;;;;;;5.93;2.40;;;13.60;99.90;;;;;;5317919;26;20001;-84
2024/04/13 07:13:21;;;;;;;6.93;2.58;;;13.60;99.90;;;;;;5315485;26;20008;-87
2024/04/13 07:15:48;;;;;;;4.07;2.58;;;13.70;99.90;;;;;;5325317;26;20006;-79
2024/04/13 07:18:15;;;;;;;3.65;2.15;;;13.80;99.90;;;;;;5306274;26;20013;-84
2024/04/13 07:20:41;;;;;;;3.25;2.30;;;13.80;99.90;;;;;;5311623;26;20008;-83
2024/04/13 07:23:06;;;;;;;4.07;2.25;;;13.80;99.90;;;;;;5310312;27;20072;-83
2024/04/13 07:25:32;;;;;;;4.13;2.80;;;13.90;99.90;;;;;;5326611;26;20009;-82
2024/04/13 07:27:58;;;;;;;5.90;2.47;;;13.90;99.90;;;;;;5322686;26;20465;-86
2024/04/13 07:30:23;;;;;;;4.03;2.55;;;14.00;99.90;;;;;;5310252;26;20392;-83
2024/04/13 07:32:49;;;;;;;5.97;2.65;;;14.10;99.90;;;;;;5306240;26;20012;-80
2024/04/13 07:35:14;;;;;;;3.88;2.45;;;14.20;99.90;;;;;;5286976;27;20021;-87
2024/04/13 07:37:40;;;;;;;5.20;2.38;;;14.30;99.90;;;;;;5332637;26;20051;-92
2024/04/13 07:40:06;;;;;;;2.75;2.13;;;14.30;99.90;;;;;;5323527;26;20068;-83
2024/04/13 07:42:32;;;;;;;5.32;3.00;;;14.40;99.90;;;;;;5312232;26;20452;-84
2024/04/13 07:44:57;;;;;;;3.75;2.80;;;14.40;99.90;;;;;;5320378;26;20004;-84
2024/04/13 07:47:23;;;;;;;4.68;2.38;;;14.50;99.90;;;;;;5334965;26;19994;-82
2024/04/13 07:49:48;;;;;;;4.10;2.20;;;14.60;99.90;;;;;;5333635;26;20075;-80
2024/04/13 07:52:14;;;;;;;8.05;2.55;;;14.70;99.90;;;;;;5313477;26;20005;-86
2024/04/13 07:54:39;;;;;;;5.78;2.38;;;14.70;99.90;;;;;;5317081;26;20013;-88
2024/04/13 07:57:05;;;;;;;7.15;2.28;;;14.80;99.90;;;;;;5309288;26;20037;-88
2024/04/13 07:59:31;;;;;;;7.93;2.60;;;14.90;99.90;;;;;;5332968;26;19997;-85
2024/04/13 08:01:56;;;;;;;4.00;2.40;;;14.90;99.90;;;;;;5335318;26;20337;-90
2024/04/13 08:04:22;;;;;;;9.30;2.45;;;14.90;99.90;;;;;;5290693;27;20009;-86
2024/04/13 08:06:51;;;;;;;6.38;2.40;;;15.00;99.90;;;;;;5317760;26;20001;-80
2024/04/13 08:09:16;;;;;;;6.78;2.33;;;15.10;99.90;;;;;;5336688;26;20002;-88
2024/04/13 08:11:42;;;;;;;4.18;2.22;;;15.10;99.90;;;;;;5302320;26;20083;-85
2024/04/13 08:14:08;;;;;;;5.80;2.40;;;15.20;99.90;;;;;;5292834;27;20458;-87
2024/04/13 08:16:34;;;;;;;4.88;2.50;;;15.30;99.90;;;;;;5342501;26;20013;-82
2024/04/13 08:19:00;;;;;;;6.85;2.50;;;15.30;99.90;;;;;;5291988;26;20005;-82
2024/04/13 08:21:25;;;;;;;4.82;2.38;;;15.40;99.90;;;;;;5334323;26;20461;-83
2024/04/13 08:23:51;;;;;;;3.65;2.67;;;15.50;99.90;;;;;;5334300;26;20001;-83
2024/04/13 08:26:16;;;;;;;6.40;2.13;;;15.50;99.90;;;;;;5300658;27;20002;-82
2024/04/13 08:28:42;;;;;;;5.53;2.50;;;15.50;99.90;;;;;;5312356;26;20065;-84
2024/04/13 08:31:08;;;;;;;11.10;2.90;;;15.60;99.90;;;;;;5294105;26;20000;-83
2024/04/13 08:33:33;;;;;;;4.72;2.17;;;15.60;99.90;;;;;;5302212;27;20002;-83
2024/04/13 08:36:04;;;;;;;7.90;2.22;;;15.70;99.90;;;;;;5283857;27;20012;-84
2024/04/13 08:38:30;;;;;;;5.65;2.10;;;15.70;99.90;;;;;;5342520;26;20016;-83
2024/04/13 08:40:57;;;;;;;6.00;2.42;;;15.70;99.90;;;;;;5290784;26;20001;-83
2024/04/13 08:43:22;;;;;;;4.65;2.45;;;15.80;99.90;;;;;;5304692;27;20114;-86
2024/04/13 08:45:48;;;;;;;6.57;2.22;;;15.90;99.90;;;;;;5332050;26;20009;-87
2024/04/13 08:48:15;;;;;;;3.85;2.30;;;15.90;99.90;;;;;;5292536;27;20009;-90
2024/04/13 08:50:42;;;;;;;3.60;2.00;;;16.00;99.90;;;;;;5318153;26;20009;-87
2024/04/13 08:53:08;;;;;;;7.00;2.85;;;15.90;99.90;;;;;;5313755;27;20540;-87
2024/04/13 08:55:37;;;;;;;4.72;2.47;;;16.10;99.90;;;;;;5299917;26;20009;-86
2024/04/13 08:58:04;;;;;;;4.50;2.30;;;16.30;99.90;;;;;;5325007;26;20070;-87
2024/04/13 09:00:31;;;;;;;5.90;2.13;;;16.30;99.90;;;;;;5312359;26;20001;-89
2024/04/13 09:02:57;;;;;;;5.88;2.10;;;16.20;99.90;;;;;;5321255;26;20001;-92
2024/04/13 09:05:25;;;;;;;5.60;2.15;;;16.30;99.90;;;;;;5318398;26;20000;-92
2024/04/13 09:07:52;;;;;;;5.03;2.40;;;16.40;99.90;;;;;;5297747;27;20438;-85
2024/04/13 09:10:18;;;;;;;6.25;2.55;;;16.40;99.90;;;;;;5340793;26;20004;-91
2024/04/13 09:12:44;;;;;;;3.75;2.33;;;16.50;99.90;;;;;;5319813;26;20001;-92
2024/04/13 09:15:10;;;;;;;5.28;2.45;;;16.50;99.90;;;;;;5306883;27;20001;-93
2024/04/13 09:17:36;;;;;;;6.03;2.10;;;16.50;99.90;;;;;;5314176;27;19994;-91
2024/04/13 09:20:07;;;;;;;4.95;2.10;;;16.50;99.90;;;;;;5306494;26;20005;-89
2024/04/13 09:22:34;;;;;;;6.13;2.55;;;16.60;99.90;;;;;;5289764;26;20037;-87
2024/04/13 09:25:00;;;;;;;5.75;2.00;;;16.80;99.90;;;;;;5339522;26;20442;-91
2024/04/13 09:27:28;;;;;;;5.30;2.60;;;16.90;99.90;;;;;;5344949;26;20032;-88
2024/04/13 09:30:05;;;;;;;5.10;2.30;;;16.90;99.90;;;;;;5325986;26;19998;-89
2024/04/13 09:32:31;;;;;;;4.18;2.20;;;17.00;99.90;;;;;;5312052;26;20016;-89
2024/04/13 09:35:13;;;;;;;6.10;2.13;;;17.00;99.90;;;;;;5290888;26;20079;-90
2024/04/13 09:37:39;;;;;;;4.53;1.95;;;17.00;99.90;;;;;;5300118;27;20001;-89
2024/04/13 09:40:06;;;;;;;5.38;2.30;;;17.10;99.90;;;;;;5336487;26;20530;-92
2024/04/13 09:42:32;;;;;;;2.45;2.22;;;17.20;99.90;;;;;;5319449;26;20442;-90
2024/04/13 09:45:11;;;;;;;4.50;2.05;;;17.30;99.90;;;;;;5310260;27;20001;-86
2024/04/13 09:47:37;;;;;;;4.45;2.10;;;17.30;99.90;;;;;;5300510;26;20008;-89
2024/04/13 09:50:03;;;;;;;3.65;2.05;;;17.30;99.90;;;;;;5298703;26;20005;-85
2024/04/13 09:52:28;;;;;;;4.75;2.20;;;17.30;99.90;;;;;;5284526;26;20017;-87
2024/04/13 09:54:56;;;;;;;4.97;2.30;;;17.30;99.90;;;;;;5309972;27;20025;-87
2024/04/13 09:57:22;;;;;;;5.72;1.98;;;17.40;99.90;;;;;;5312986;26;20008;-89
2024/04/13 09:59:50;;;;;;;3.20;1.90;;;17.40;99.90;;;;;;5297506;27;20053;-79
2024/04/13 10:02:17;;;;;;;3.63;1.90;;;17.50;99.90;;;;;;5339287;26;20449;-88
2024/04/13 10:04:43;;;;;;;5.15;2.22;;;17.60;99.90;;;;;;5319045;26;20454;-89
2024/04/13 10:07:11;;;;;;;7.00;2.30;;;17.70;99.90;;;;;;5336812;26;20014;-88
2024/04/13 10:09:40;;;;;;;10.75;3.00;;;17.70;99.90;;;;;;5330275;26;20005;-88
2024/04/13 10:12:12;;;;;;;4.70;2.15;;;17.70;99.90;;;;;;5297364;26;20013;-87
2024/04/13 10:14:41;;;;;;;6.93;2.50;;;17.90;99.90;;;;;;5309213;26;20012;-89
2024/04/13 10:17:08;;;;;;;4.50;1.98;;;17.90;99.90;;;;;;5292416;26;20085;-88
2024/04/13 10:19:34;;;;;;;6.72;1.85;;;17.90;99.90;;;;;;5331086;26;20009;-86
2024/04/13 10:22:01;;;;;;;4.03;2.00;;;18.00;99.90;;;;;;5282485;27;20008;-87
2024/04/13 10:24:27;;;;;;;5.85;2.00;;;18.00;99.90;;;;;;5310675;26;20067;-83
2024/04/13 10:26:53;;;;;;;5.40;2.15;;;18.10;99.90;;;;;;5328137;26;19998;-87
2024/04/13 10:29:25;;;;;;;5.18;1.63;;;18.10;99.90;;;;;;5296095;26;20005;-90
2024/04/13 10:31:51;;;;;;;;;;;18.20;99.90;;;;;;5306832;26;20002;-85
2024/04/13 10:34:26;;;;;;;4.40;2.10;;;18.20;99.90;;;;;;5285161;27;19927;-86
2024/04/13 10:36:59;;;;;;;5.13;2.38;;;18.30;99.90;;;;;;5281918;27;20477;-88
2024/04/13 10:39:24;;;;;;;3.67;2.42;;;18.40;99.90;;;;;;5296482;26;20490;-85
2024/04/13 10:41:50;;;;;;;5.85;2.17;;;18.50;99.90;;;;;;5295393;26;20013;-89
2024/04/13 10:44:24;;;;;;;4.47;1.80;;;18.50;99.90;;;;;;5287938;27;20006;-86
2024/04/13 10:46:51;;;;;;;2.35;1.77;;;18.60;99.90;;;;;;5282104;27;20016;-84
2024/04/13 10:49:18;;;;;;;2.70;1.88;;;18.70;99.90;;;;;;5325116;26;20005;-86
2024/04/13 10:51:44;;;;;;;4.40;2.28;;;18.70;99.90;;;;;;5311586;26;20016;-87
2024/04/13 10:54:13;;;;;;;5.95;1.85;;;18.70;99.90;;;;;;5291002;27;20006;-87
2024/04/13 10:56:41;;;;;;;4.45;2.10;;;18.70;99.90;;;;;;5340520;26;20009;-89
2024/04/13 10:59:08;;;;;;;3.60;2.10;;;18.70;99.90;;;;;;5321903;26;20009;-87
2024/04/13 11:01:34;;;;;;;6.53;2.40;;;18.80;99.90;;;;;;5300084;27;19998;-85
2024/04/13 11:04:06;;;;;;;5.55;2.45;;;18.90;99.90;;;;;;5304202;26;20001;-85
2024/04/13 11:06:32;;;;;;;6.05;2.53;;;18.90;99.90;;;;;;5314672;26;20344;-87
2024/04/13 11:08:58;;;;;;;5.90;2.28;;;18.90;99.90;;;;;;5292000;26;20000;-88
2024/04/13 11:11:25;;;;;;;5.05;2.22;;;18.90;99.90;;;;;;5319666;26;20449;-88
2024/04/13 11:13:51;;;;;;;6.03;2.42;;;19.00;99.90;;;;;;5329097;26;20006;-85
2024/04/13 11:16:17;;;;;;;4.10;1.90;;;19.10;99.90;;;;;;5311850;26;20012;-87
2024/04/13 11:18:42;;;;;;;6.97;2.40;;;19.10;99.90;;;;;;5291565;26;20079;-87
2024/04/13 11:21:11;;;;;;;3.60;2.03;;;19.10;99.90;;;;;;5339309;26;20453;-85
2024/04/13 11:23:38;;;;;;;3.05;1.95;;;19.20;99.90;;;;;;5315141;27;20008;-85
2024/04/13 11:26:04;;;;;;;3.53;1.80;;;19.40;99.90;;;;;;5307447;26;20016;-77
2024/04/13 11:28:30;;;;;;;4.50;1.70;;;19.70;99.90;;;;;;5291083;26;20009;-85
2024/04/13 11:30:55;;;;;;;3.97;1.42;;;19.80;99.90;;;;;;5341909;26;20013;-86
2024/04/13 11:33:22;;;;;;;4.15;1.60;;;19.80;99.90;;;;;;5298243;26;20083;-83
2024/04/13 11:35:57;;;;;;;4.85;1.75;;;19.90;99.90;;;;;;5299350;27;20450;-85
2024/04/13 11:38:24;;;;;;;4.20;1.38;;;19.90;99.90;;;;;;5285389;27;20431;-83
2024/04/13 11:40:53;;;;;;;2.90;1.38;;;20.00;99.90;;;;;;5313044;27;20079;-86
2024/04/13 11:43:18;;;;;;;5.60;1.58;;;20.10;99.90;;;;;;5327713;26;20000;-84
2024/04/13 11:45:45;;;;;;;2.55;1.15;;;20.20;99.90;;;;;;5299817;27;20020;-91
2024/04/13 11:48:10;;;;;;;2.92;1.52;;;20.20;99.90;;;;;;5339816;26;20170;-90
2024/04/13 11:50:36;;;;;;;3.10;1.27;;;20.30;99.90;;;;;;5323874;26;20005;-91
2024/04/13 11:53:02;;;;;;;3.42;2.17;;;20.40;99.90;;;;;;5284403;27;20006;-91
2024/04/13 11:55:32;;;;;;;4.57;1.80;;;20.30;99.90;;;;;;5332318;26;20005;-90
2024/04/13 11:57:58;;;;;;;3.70;1.40;;;20.40;99.90;;;;;;5318798;26;20016;-91
2024/04/13 12:00:24;;;;;;;1.65;1.35;;;20.40;99.90;;;;;;5291130;27;20427;-92
2024/04/13 12:02:50;;;;;;;2.60;1.50;;;20.50;99.90;;;;;;5319446;26;20001;-93
2024/04/13 12:05:18;;;;;;;3.53;1.52;;;20.60;99.90;;;;;;5336832;26;20001;-92
2024/04/13 12:07:44;;;;;;;1.83;1.33;;;20.70;99.90;;;;;;5333400;26;20005;-92
2024/04/13 12:10:10;;;;;;;4.13;1.30;;;20.80;99.90;;;;;;5293641;27;20071;-92
2024/04/13 12:12:36;;;;;;;2.03;1.13;;;20.90;99.90;;;;;;5312698;26;20004;-90
2024/04/13 12:15:02;;;;;;;2.58;1.38;;;21.10;99.30;;;;;;5322953;26;20011;-92
2024/04/13 12:17:28;;;;;;;3.25;1.17;;;21.20;99.30;;;;;;5304421;27;20080;-92
2024/04/13 12:19:53;;;;;;;2.97;1.30;;;21.30;99.20;;;;;;5303734;26;20009;-86
2024/04/13 12:22:19;;;;;;;1.95;1.38;;;21.50;98.90;;;;;;5291828;27;20009;-88
2024/04/13 12:24:44;;;;;;;2.50;1.20;;;21.70;98.80;;;;;;5312769;26;20090;-88
2024/04/13 12:27:10;;;;;;;5.45;1.10;;;21.90;98.90;;;;;;5330126;26;20438;-87
2024/04/13 12:29:36;;;;;;;2.20;1.20;;;21.90;98.20;;;;;;5300893;26;20004;-84
2024/04/13 12:32:02;;;;;;;1.40;1.00;;;22.10;98.80;;;;;;5325448;26;20006;-84
2024/04/13 12:34:28;;;;;;;3.83;1.08;;;22.30;98.50;;;;;;5319109;26;19997;-89
2024/04/13 12:36:54;;;;;;;2.70;1.10;;;22.40;96.90;;;;;;5294689;26;20078;-88
2024/04/13 12:39:19;;;;;;;2.22;1.20;;;22.50;95.70;;;;;;5312234;27;20012;-89
2024/04/13 12:41:46;;;;;;;3.35;1.00;;;22.70;95.40;;;;;;5305888;26;20441;-89
2024/04/13 12:44:11;;;;;;;1.42;0.80;;;22.90;95.30;;;;;;5298194;27;19998;-88